createdAt,value
2017-07-09T00:00:31.731Z,2.30
2017-07-09T00:02:59.299Z,2.57
2017-07-09T00:05:26.876Z,2.30
2017-07-09T00:07:55.235Z,2.70
2017-07-09T00:10:22.811Z,2.80
2017-07-09T00:12:50.384Z,2.40
2017-07-09T00:15:17.947Z,3.30
2017-07-09T00:17:45.527Z,3.40
2017-07-09T00:20:13.088Z,3.83
2017-07-09T00:22:40.670Z,3.97
2017-07-09T00:25:08.247Z,3.37
2017-07-09T00:27:36.580Z,3.63
2017-07-09T00:30:04.156Z,3.20
2017-07-09T00:32:31.755Z,2.70
2017-07-09T00:34:59.336Z,3.00
2017-07-09T00:37:26.964Z,3.13
2017-07-09T00:39:55.286Z,3.40
2017-07-09T00:42:23.468Z,3.00
2017-07-09T00:44:51.041Z,3.33
2017-07-09T00:47:18.909Z,3.37
2017-07-09T00:49:46.487Z,3.53
2017-07-09T00:52:14.058Z,3.67
2017-07-09T00:54:42.398Z,3.13
2017-07-09T00:57:09.977Z,3.10
2017-07-09T00:59:37.556Z,3.00
2017-07-09T01:02:05.893Z,3.43
2017-07-09T01:04:33.474Z,3.00
2017-07-09T01:07:01.036Z,2.83
2017-07-09T01:09:29.411Z,3.67
2017-07-09T01:11:56.976Z,2.50
2017-07-09T01:14:24.594Z,2.50
2017-07-09T01:16:52.147Z,3.50
2017-07-09T01:19:19.729Z,3.17
2017-07-09T01:21:47.301Z,2.70
2017-07-09T01:24:14.882Z,3.50
2017-07-09T01:26:43.211Z,3.50
2017-07-09T01:29:10.806Z,3.73
2017-07-09T01:31:39.138Z,3.43
2017-07-09T01:34:06.727Z,3.80
2017-07-09T01:36:34.300Z,2.93
2017-07-09T01:39:02.643Z,3.53
2017-07-09T01:41:30.194Z,3.00
2017-07-09T01:43:57.766Z,3.07
2017-07-09T01:46:25.344Z,3.33
2017-07-09T01:48:52.918Z,3.40
2017-07-09T01:51:21.245Z,3.27
2017-07-09T01:53:48.818Z,3.23
2017-07-09T01:56:16.395Z,3.73
2017-07-09T01:58:43.973Z,3.40
2017-07-09T02:01:12.332Z,3.80
2017-07-09T02:03:39.909Z,3.70
2017-07-09T02:06:08.286Z,2.93
2017-07-09T02:08:35.874Z,3.87
2017-07-09T02:11:03.436Z,3.50
2017-07-09T02:13:31.016Z,3.70
2017-07-09T02:15:58.588Z,3.70
2017-07-09T02:18:26.152Z,4.30
2017-07-09T02:20:53.713Z,3.20
2017-07-09T02:23:21.274Z,3.77
2017-07-09T02:25:48.863Z,3.30
2017-07-09T02:28:16.443Z,3.27
2017-07-09T02:30:44.048Z,3.73
2017-07-09T02:33:11.626Z,3.70
2017-07-09T02:35:39.967Z,3.67
2017-07-09T02:38:07.520Z,3.53
2017-07-09T02:40:35.109Z,3.80
2017-07-09T02:43:02.690Z,3.47
2017-07-09T02:45:31.040Z,3.83
2017-07-09T02:47:58.619Z,4.40
2017-07-09T02:50:26.233Z,3.60
2017-07-09T02:52:53.802Z,3.60
2017-07-09T02:55:21.405Z,3.27
2017-07-09T02:57:49.725Z,3.40
2017-07-09T03:00:17.328Z,3.20
2017-07-09T03:02:45.666Z,3.60
2017-07-09T03:05:13.230Z,3.60
2017-07-09T03:07:40.805Z,3.10
2017-07-09T03:10:08.394Z,2.77
2017-07-09T03:12:36.725Z,3.10
2017-07-09T03:15:04.296Z,2.73
2017-07-09T03:17:31.872Z,3.83
2017-07-09T03:19:59.449Z,3.20
2017-07-09T03:22:27.771Z,2.83
2017-07-09T03:24:55.345Z,4.03
2017-07-09T03:27:22.908Z,3.43
2017-07-09T03:29:50.481Z,3.30
2017-07-09T03:32:18.037Z,3.77
2017-07-09T03:34:45.621Z,3.20
2017-07-09T03:37:13.963Z,3.27
2017-07-09T03:39:41.560Z,3.03
2017-07-09T03:42:09.134Z,3.23
2017-07-09T03:44:36.711Z,3.77
2017-07-09T03:47:04.298Z,3.10
2017-07-09T03:49:31.882Z,3.20
2017-07-09T03:51:59.444Z,3.07
2017-07-09T03:54:27.769Z,3.50
2017-07-09T03:56:55.352Z,3.33
2017-07-09T03:59:22.934Z,3.30
2017-07-09T04:01:51.271Z,3.50
2017-07-09T04:04:18.852Z,4.23
2017-07-09T04:06:46.429Z,3.80
2017-07-09T04:09:14.008Z,3.60
2017-07-09T04:11:41.594Z,3.20
2017-07-09T04:14:09.222Z,3.80
2017-07-09T04:16:36.810Z,3.70
2017-07-09T04:19:04.383Z,4.07
2017-07-09T04:21:31.962Z,4.00
2017-07-09T04:23:59.544Z,4.20
2017-07-09T04:26:27.888Z,3.43
2017-07-09T04:28:55.435Z,3.43
2017-07-09T04:31:23.011Z,3.50
2017-07-09T04:33:50.587Z,3.03
2017-07-09T04:36:18.173Z,3.27
2017-07-09T04:38:46.493Z,2.73
2017-07-09T04:41:14.057Z,2.67
2017-07-09T04:43:41.684Z,2.87
2017-07-09T04:46:09.257Z,2.97
2017-07-09T04:48:36.842Z,2.60
2017-07-09T04:51:04.439Z,2.67
2017-07-09T04:53:31.997Z,2.70
2017-07-09T04:55:59.580Z,2.80
2017-07-09T04:58:27.129Z,2.87
2017-07-09T05:00:54.717Z,2.60
2017-07-09T05:03:22.302Z,2.40
2017-07-09T05:05:49.912Z,2.03
2017-07-09T05:08:17.491Z,2.27
2017-07-09T05:13:19.680Z,2.20
2017-07-09T05:15:47.274Z,2.50
2017-07-09T05:18:15.690Z,2.20
2017-07-09T05:20:43.276Z,2.03
2017-07-09T05:23:10.863Z,2.00
2017-07-09T05:25:38.703Z,2.10
2017-07-09T05:28:06.265Z,2.10
2017-07-09T05:30:33.822Z,2.10
2017-07-09T05:33:01.405Z,2.13
2017-07-09T05:35:28.982Z,1.50
2017-07-09T05:37:57.329Z,1.70
2017-07-09T05:40:24.900Z,1.97
2017-07-09T05:42:52.485Z,2.30
2017-07-09T05:45:20.832Z,2.10
2017-07-09T05:47:48.408Z,1.83
2017-07-09T05:50:15.984Z,2.07
2017-07-09T05:52:43.582Z,2.27
2017-07-09T05:55:11.181Z,2.07
2017-07-09T05:57:38.769Z,1.87
2017-07-09T06:00:06.323Z,2.13
2017-07-09T06:02:33.899Z,2.17
2017-07-09T06:05:01.446Z,2.30
2017-07-09T06:07:29.015Z,1.70
2017-07-09T06:09:56.589Z,1.93
2017-07-09T06:12:24.172Z,2.27
2017-07-09T06:14:51.750Z,1.80
2017-07-09T06:17:19.611Z,1.77
2017-07-09T06:19:47.168Z,2.20
2017-07-09T06:22:14.729Z,2.37
2017-07-09T06:24:42.361Z,2.40
2017-07-09T06:27:10.013Z,1.73
2017-07-09T06:29:37.578Z,3.00
2017-07-09T06:32:05.136Z,2.50
2017-07-09T06:34:32.697Z,2.70
2017-07-09T06:37:00.257Z,2.47
2017-07-09T06:39:28.137Z,2.53
2017-07-09T06:41:55.693Z,2.67
2017-07-09T06:44:23.268Z,2.73
2017-07-09T06:46:50.855Z,2.93
2017-07-09T06:49:18.448Z,3.93
2017-07-09T06:51:46.025Z,3.27
2017-07-09T06:54:13.576Z,4.17
2017-07-09T06:56:41.451Z,3.30
2017-07-09T06:59:09.073Z,3.70
2017-07-09T07:01:36.651Z,4.30
2017-07-09T07:04:04.226Z,4.70
2017-07-09T07:06:31.802Z,3.90
2017-07-09T07:08:59.389Z,4.57
2017-07-09T07:11:27.740Z,5.00
2017-07-09T07:13:55.614Z,5.80
2017-07-09T07:16:24.047Z,6.13
2017-07-09T07:18:51.658Z,5.70
2017-07-09T07:21:20.007Z,5.87
2017-07-09T07:23:47.570Z,5.20
2017-07-09T07:26:15.182Z,5.37
2017-07-09T07:28:42.815Z,6.30
2017-07-09T07:31:10.391Z,7.23
2017-07-09T07:33:37.967Z,5.70
2017-07-09T07:36:05.874Z,5.23
2017-07-09T07:38:33.473Z,5.60
2017-07-09T07:41:01.045Z,6.00
2017-07-09T07:43:28.644Z,5.80
2017-07-09T07:45:56.225Z,5.70
2017-07-09T07:48:24.591Z,6.10
2017-07-09T07:50:52.168Z,5.40
2017-07-09T07:53:20.504Z,5.70
2017-07-09T07:55:48.089Z,4.90
2017-07-09T07:58:16.048Z,5.27
2017-07-09T08:00:43.629Z,4.83
2017-07-09T08:03:11.948Z,4.97
2017-07-09T08:05:39.533Z,4.30
2017-07-09T08:08:07.116Z,5.07
2017-07-09T08:10:34.758Z,5.10
2017-07-09T08:13:02.325Z,5.00
2017-07-09T08:15:30.176Z,4.40
2017-07-09T08:17:57.748Z,4.27
2017-07-09T08:20:25.315Z,4.30
2017-07-09T08:22:52.911Z,4.30
2017-07-09T08:25:21.259Z,4.80
2017-07-09T08:27:49.610Z,3.80
2017-07-09T08:30:17.207Z,3.83
2017-07-09T08:32:45.585Z,3.67
2017-07-09T08:35:13.919Z,3.70
2017-07-09T08:37:41.499Z,4.50
2017-07-09T08:40:09.116Z,3.83
2017-07-09T08:42:36.664Z,3.83
2017-07-09T08:45:04.258Z,4.27
2017-07-09T08:47:31.838Z,4.33
2017-07-09T08:50:00.203Z,3.20
2017-07-09T08:52:27.799Z,3.23
2017-07-09T08:54:56.143Z,3.00
2017-07-09T08:57:23.709Z,3.13
2017-07-09T08:59:51.667Z,3.37
2017-07-09T09:02:19.222Z,3.23
2017-07-09T09:04:46.782Z,3.03
2017-07-09T09:07:14.355Z,3.20
2017-07-09T09:09:41.934Z,2.70
2017-07-09T09:12:10.296Z,2.90
2017-07-09T09:14:37.887Z,3.03
2017-07-09T09:17:05.496Z,2.40
2017-07-09T09:19:33.087Z,3.47
2017-07-09T09:22:01.443Z,3.27
2017-07-09T09:24:29.024Z,3.70
2017-07-09T09:26:57.359Z,2.60
2017-07-09T09:29:24.906Z,3.60
2017-07-09T09:31:52.489Z,3.10
2017-07-09T09:34:20.059Z,2.97
2017-07-09T09:36:47.640Z,2.80
2017-07-09T09:39:15.297Z,2.67
2017-07-09T09:41:43.665Z,2.70
2017-07-09T09:44:11.224Z,2.70
2017-07-09T09:46:38.845Z,3.03
2017-07-09T09:49:06.443Z,2.87
2017-07-09T09:51:34.830Z,3.03
2017-07-09T09:54:03.173Z,2.60
2017-07-09T09:56:30.752Z,2.70
2017-07-09T09:58:58.309Z,2.90
2017-07-09T10:01:25.924Z,2.90
2017-07-09T10:03:53.519Z,3.10
2017-07-09T10:06:21.123Z,2.60
2017-07-09T10:08:48.731Z,3.03
2017-07-09T10:11:16.357Z,2.33
2017-07-09T10:13:44.012Z,3.47
2017-07-09T10:16:11.925Z,3.20
2017-07-09T10:18:39.516Z,2.80
2017-07-09T10:21:07.918Z,3.30
2017-07-09T10:23:35.530Z,2.80
2017-07-09T10:26:03.880Z,2.50
2017-07-09T10:28:31.459Z,2.80
2017-07-09T10:30:59.032Z,2.80
2017-07-09T10:33:26.630Z,3.47
2017-07-09T10:35:54.323Z,2.77
2017-07-09T10:38:21.931Z,2.90
2017-07-09T10:40:49.537Z,2.97
2017-07-09T10:43:17.123Z,2.97
2017-07-09T10:45:44.686Z,3.50
2017-07-09T10:48:12.364Z,2.90
2017-07-09T10:50:39.964Z,3.20
2017-07-09T10:53:08.693Z,3.10
2017-07-09T10:55:36.269Z,2.90
2017-07-09T10:58:04.647Z,3.00
2017-07-09T11:00:33.023Z,3.30
2017-07-09T11:03:01.375Z,3.47
2017-07-09T11:05:28.997Z,3.17
2017-07-09T11:07:56.612Z,3.10
2017-07-09T11:10:24.199Z,2.70
2017-07-09T11:12:51.785Z,3.27
2017-07-09T11:15:19.374Z,3.60
2017-07-09T11:17:46.956Z,3.80
2017-07-09T11:20:15.295Z,3.10
2017-07-09T11:22:42.903Z,3.03
2017-07-09T11:25:10.501Z,3.30
2017-07-09T11:27:38.078Z,2.70
2017-07-09T11:30:05.635Z,2.90
2017-07-09T11:32:33.214Z,3.30
2017-07-09T11:35:00.819Z,3.33
2017-07-09T11:37:28.398Z,3.17
2017-07-09T11:39:56.055Z,3.17
2017-07-09T11:42:24.225Z,3.10
2017-07-09T11:44:51.798Z,2.80
2017-07-09T11:47:19.757Z,2.50
2017-07-09T11:49:47.322Z,2.63
2017-07-09T11:52:14.906Z,2.43
2017-07-09T11:54:42.508Z,3.27
2017-07-09T11:57:10.070Z,2.27
2017-07-09T11:59:37.692Z,2.40
2017-07-09T12:02:05.290Z,3.00
2017-07-09T12:04:32.879Z,26.63
2017-07-09T12:07:00.458Z,5.07
2017-07-09T12:09:28.045Z,4.23
2017-07-09T12:11:56.374Z,6.70
2017-07-09T12:14:23.954Z,4.20
2017-07-09T12:16:52.073Z,3.20
2017-07-09T12:19:20.071Z,3.97
2017-07-09T12:21:47.714Z,2.40
2017-07-09T12:24:15.299Z,3.10
2017-07-09T12:26:42.888Z,2.90
2017-07-09T12:29:11.522Z,3.00
2017-07-09T12:31:39.101Z,23.70
2017-07-09T12:34:06.712Z,999.90
2017-07-09T12:36:34.384Z,391.00
2017-07-09T12:39:01.956Z,374.63
2017-07-09T12:41:29.568Z,688.07
2017-07-09T12:43:57.917Z,60.13
2017-07-09T12:46:25.542Z,723.23
2017-07-09T12:48:53.140Z,675.67
2017-07-09T12:51:21.280Z,999.90
2017-07-09T12:53:48.900Z,434.13
2017-07-09T12:56:17.246Z,715.00
2017-07-09T12:58:44.874Z,344.40
2017-07-09T13:01:12.448Z,8.10
2017-07-09T13:03:40.091Z,516.10
2017-07-09T13:06:07.764Z,40.63
2017-07-09T13:08:35.648Z,201.50
2017-07-09T13:11:04.584Z,5.60
2017-07-09T13:13:32.159Z,3.53
2017-07-09T13:15:59.759Z,107.87
2017-07-09T13:18:27.363Z,254.00
2017-07-09T13:20:55.778Z,139.80
2017-07-09T13:23:23.345Z,7.63
2017-07-09T13:25:50.935Z,38.13
2017-07-09T13:28:18.534Z,10.17
2017-07-09T13:30:46.117Z,3.60
2017-07-09T13:33:13.730Z,5.07
2017-07-09T13:35:42.093Z,14.27
2017-07-09T13:38:10.461Z,18.10
2017-07-09T13:40:38.036Z,45.93
2017-07-09T13:43:06.504Z,37.10
2017-07-09T13:45:34.099Z,15.80
2017-07-09T13:48:01.949Z,34.17
2017-07-09T13:50:30.344Z,23.30
2017-07-09T13:52:57.925Z,27.20
2017-07-09T13:55:25.522Z,116.50
2017-07-09T13:57:53.110Z,29.33
2017-07-09T14:00:20.689Z,4.40
2017-07-09T14:02:48.281Z,5.50
2017-07-09T14:05:15.880Z,4.90
2017-07-09T14:07:43.465Z,7.40
2017-07-09T14:10:11.359Z,3.93
2017-07-09T14:12:38.997Z,9.13
2017-07-09T14:15:06.551Z,3.10
2017-07-09T14:17:34.136Z,2.80
2017-07-09T14:20:01.706Z,4.20
2017-07-09T14:22:29.275Z,3.13
2017-07-09T14:24:56.887Z,2.87
2017-07-09T14:27:24.451Z,6.20
2017-07-09T14:29:52.018Z,3.10
2017-07-09T14:32:19.966Z,2.93
2017-07-09T14:34:47.567Z,2.83
2017-07-09T14:37:15.156Z,2.57
2017-07-09T14:39:42.797Z,3.70
2017-07-09T14:42:10.359Z,3.30
2017-07-09T14:44:37.929Z,2.80
2017-07-09T14:47:05.508Z,2.93
2017-07-09T14:49:33.848Z,3.40
2017-07-09T14:52:02.177Z,2.80
2017-07-09T14:54:30.036Z,2.73
2017-07-09T14:56:57.626Z,2.80
2017-07-09T14:59:25.188Z,3.10
2017-07-09T15:01:52.778Z,3.07
2017-07-09T15:04:20.353Z,2.90
2017-07-09T15:06:48.711Z,3.50
2017-07-09T15:09:16.272Z,2.53
2017-07-09T15:11:43.853Z,3.20
2017-07-09T15:14:12.171Z,2.90
2017-07-09T15:16:40.055Z,2.93
2017-07-09T15:19:07.620Z,2.83
2017-07-09T15:21:35.207Z,3.33
2017-07-09T15:24:03.542Z,7.47
2017-07-09T15:26:31.132Z,13.90
2017-07-09T15:28:59.483Z,4.90
2017-07-09T15:31:27.043Z,4.90
2017-07-09T15:33:54.613Z,3.80
2017-07-09T15:36:22.182Z,3.70
2017-07-09T15:38:49.778Z,3.30
2017-07-09T15:41:17.364Z,2.97
2017-07-09T15:43:44.965Z,3.57
2017-07-09T15:46:13.399Z,2.70
2017-07-09T15:48:40.951Z,3.10
2017-07-09T15:51:08.522Z,5.17
2017-07-09T15:53:36.134Z,3.40
2017-07-09T15:56:04.472Z,2.17
2017-07-09T15:58:32.438Z,2.00
2017-07-09T16:01:00.006Z,2.30
2017-07-09T16:03:27.599Z,3.60
2017-07-09T16:05:55.193Z,2.53
2017-07-09T16:08:22.751Z,2.67
2017-07-09T16:10:50.333Z,2.30
2017-07-09T16:13:17.926Z,3.50
2017-07-09T16:15:46.253Z,2.73
2017-07-09T16:18:13.800Z,2.70
2017-07-09T16:20:41.380Z,3.00
2017-07-09T16:23:08.952Z,2.47
2017-07-09T16:25:36.528Z,2.40
2017-07-09T16:28:04.106Z,2.80
2017-07-09T16:30:31.694Z,2.07
2017-07-09T16:32:59.247Z,2.37
2017-07-09T16:35:26.819Z,2.57
2017-07-09T16:37:54.384Z,2.67
2017-07-09T16:40:22.001Z,2.20
2017-07-09T16:42:50.332Z,2.90
2017-07-09T16:45:17.917Z,2.00
2017-07-09T16:47:46.259Z,2.90
2017-07-09T16:50:13.821Z,1.87
2017-07-09T16:52:41.388Z,2.93
2017-07-09T16:55:09.237Z,2.60
2017-07-09T16:57:36.889Z,3.27
2017-07-09T17:00:04.463Z,3.10
2017-07-09T17:02:32.045Z,3.43
2017-07-09T17:04:59.598Z,3.17
2017-07-09T17:07:27.177Z,2.87
2017-07-09T17:09:55.513Z,3.67
2017-07-09T17:12:23.766Z,3.13
2017-07-09T17:14:51.345Z,2.40
2017-07-09T17:17:18.926Z,2.87
2017-07-09T17:19:46.520Z,2.90
2017-07-09T17:22:14.125Z,2.30
2017-07-09T17:24:41.697Z,3.40
2017-07-09T17:27:09.299Z,2.57
2017-07-09T17:29:36.890Z,3.10
2017-07-09T17:32:04.514Z,2.93
2017-07-09T17:34:32.854Z,2.90
2017-07-09T17:37:00.816Z,3.43
2017-07-09T17:39:28.405Z,2.57
2017-07-09T17:41:56.753Z,3.30
2017-07-09T17:44:24.327Z,2.57
2017-07-09T17:46:51.930Z,2.70
2017-07-09T17:49:19.505Z,3.50
2017-07-09T17:51:47.115Z,3.60
2017-07-09T17:54:15.451Z,2.80
2017-07-09T17:56:43.051Z,2.87
2017-07-09T17:59:10.978Z,2.80
2017-07-09T18:01:38.529Z,2.73
2017-07-09T18:04:06.109Z,3.20
2017-07-09T18:06:33.738Z,2.73
2017-07-09T18:09:01.310Z,4.40
2017-07-09T18:11:28.895Z,2.97
2017-07-09T18:13:56.450Z,2.83
2017-07-09T18:16:24.333Z,2.10
2017-07-09T18:18:51.891Z,2.30
2017-07-09T18:21:19.441Z,2.13
2017-07-09T18:23:47.036Z,2.73
2017-07-09T18:26:14.617Z,2.33
2017-07-09T18:28:42.195Z,2.20
2017-07-09T18:31:09.781Z,2.40
2017-07-09T18:33:37.632Z,3.20
2017-07-09T18:36:05.204Z,1.90
2017-07-09T18:38:32.778Z,2.50
2017-07-09T18:41:01.148Z,1.80
2017-07-09T18:43:28.720Z,1.80
2017-07-09T18:45:57.089Z,2.40
2017-07-09T18:48:24.734Z,3.00
2017-07-09T18:50:52.354Z,2.00
2017-07-09T18:53:20.188Z,1.90
2017-07-09T18:55:48.933Z,2.27
2017-07-09T18:58:16.539Z,1.90
2017-07-09T19:00:44.862Z,2.40
2017-07-09T19:03:12.481Z,1.83
2017-07-09T19:05:40.184Z,2.03
2017-07-09T19:08:08.575Z,2.57
2017-07-09T19:10:36.156Z,1.70
2017-07-09T19:13:03.788Z,2.27
2017-07-09T19:15:31.380Z,2.43
2017-07-09T19:17:59.745Z,1.97
2017-07-09T19:20:27.309Z,2.10
2017-07-09T19:22:54.926Z,2.30
2017-07-09T19:25:22.510Z,2.33
2017-07-09T19:27:50.136Z,1.97
2017-07-09T19:30:17.768Z,2.07
2017-07-09T19:32:46.100Z,1.43
2017-07-09T19:35:13.670Z,2.00
2017-07-09T19:37:41.463Z,2.30
2017-07-09T19:40:10.668Z,2.50
2017-07-09T19:42:38.455Z,2.13
2017-07-09T19:45:06.112Z,2.50
2017-07-09T19:47:33.788Z,1.83
2017-07-09T19:50:01.612Z,1.97
2017-07-09T19:52:29.978Z,2.40
2017-07-09T19:54:58.317Z,2.00
2017-07-09T19:57:25.900Z,2.07
2017-07-09T19:59:53.453Z,2.47
2017-07-09T20:02:21.029Z,2.10
2017-07-09T20:04:49.364Z,2.60
2017-07-09T20:07:16.921Z,2.80
2017-07-09T20:09:44.766Z,1.80
2017-07-09T20:12:12.347Z,2.87
2017-07-09T20:14:39.918Z,1.87
2017-07-09T20:17:07.509Z,1.80
2017-07-09T20:19:35.845Z,2.30
2017-07-09T20:22:03.423Z,2.57
2017-07-09T20:24:30.979Z,2.47
2017-07-09T20:26:58.544Z,2.57
2017-07-09T20:29:26.139Z,1.73
2017-07-09T20:31:53.696Z,1.97
2017-07-09T20:34:21.272Z,2.30
2017-07-09T20:36:48.838Z,3.67
2017-07-09T20:39:16.410Z,2.80
2017-07-09T20:41:43.985Z,2.63
2017-07-09T20:44:11.589Z,2.00
2017-07-09T20:46:39.930Z,2.10
2017-07-09T20:49:07.519Z,2.63
2017-07-09T20:51:35.095Z,2.00
2017-07-09T20:54:02.690Z,2.40
2017-07-09T20:56:30.271Z,2.07
2017-07-09T20:58:57.842Z,3.03
2017-07-09T21:01:25.441Z,2.30
2017-07-09T21:03:53.119Z,2.70
2017-07-09T21:06:20.694Z,2.47
2017-07-09T21:08:48.296Z,2.53
2017-07-09T21:11:16.635Z,3.07
2017-07-09T21:13:44.229Z,2.50
2017-07-09T21:18:46.455Z,2.40
2017-07-09T21:21:14.016Z,2.07
2017-07-09T21:23:41.590Z,2.20
2017-07-09T21:26:09.165Z,3.00
2017-07-09T21:28:36.762Z,2.93
2017-07-09T21:31:04.338Z,2.80
2017-07-09T21:33:32.233Z,2.87
2017-07-09T21:35:59.805Z,2.93
2017-07-09T21:38:27.362Z,3.23
2017-07-09T21:40:54.951Z,2.20
2017-07-09T21:43:23.280Z,2.90
2017-07-09T21:45:50.868Z,2.43
2017-07-09T21:48:18.486Z,2.17
2017-07-09T21:50:46.056Z,2.53
2017-07-09T21:53:13.619Z,2.20
2017-07-09T21:55:41.201Z,2.97
2017-07-09T21:58:08.791Z,2.60
2017-07-09T22:00:36.369Z,2.23
2017-07-09T22:03:04.065Z,1.93
2017-07-09T22:05:31.640Z,2.90
2017-07-09T22:07:59.207Z,2.20
2017-07-09T22:10:27.565Z,3.07
2017-07-09T22:12:55.145Z,2.90
2017-07-09T22:15:23.494Z,2.83
2017-07-09T22:17:51.089Z,2.50
2017-07-09T22:20:18.706Z,2.47
2017-07-09T22:22:46.302Z,2.20
2017-07-09T22:25:14.662Z,2.40
2017-07-09T22:27:42.237Z,1.73
2017-07-09T22:30:10.589Z,3.07
2017-07-09T22:32:38.163Z,2.47
2017-07-09T22:35:05.742Z,2.40
2017-07-09T22:37:34.075Z,2.70
2017-07-09T22:40:01.662Z,2.93
2017-07-09T22:42:29.224Z,2.40
2017-07-09T22:44:56.802Z,3.07
2017-07-09T22:47:25.131Z,2.63
2017-07-09T22:49:52.721Z,2.43
2017-07-09T22:52:21.053Z,3.10
2017-07-09T22:54:48.639Z,2.97
2017-07-09T22:57:16.208Z,2.33
2017-07-09T22:59:43.801Z,3.10
2017-07-09T23:02:11.363Z,2.60
2017-07-09T23:04:39.267Z,2.17
2017-07-09T23:07:06.833Z,4.10
2017-07-09T23:09:34.412Z,2.70
2017-07-09T23:12:02.764Z,2.40
2017-07-09T23:14:30.325Z,3.10
2017-07-09T23:16:57.895Z,3.87
2017-07-09T23:19:25.455Z,3.57
2017-07-09T23:21:53.085Z,3.60
2017-07-09T23:24:20.658Z,2.67
2017-07-09T23:26:48.224Z,3.40
2017-07-09T23:29:15.804Z,3.67
2017-07-09T23:31:43.406Z,2.60
2017-07-09T23:34:10.977Z,3.27
2017-07-09T23:36:38.644Z,3.07
2017-07-09T23:39:06.203Z,2.87
2017-07-09T23:41:33.861Z,2.73
2017-07-09T23:44:01.429Z,2.70
2017-07-09T23:46:29.016Z,2.40
2017-07-09T23:48:56.604Z,2.60
2017-07-09T23:51:24.190Z,2.73
2017-07-09T23:53:51.746Z,2.70
2017-07-09T23:56:19.314Z,3.77
2017-07-09T23:58:46.889Z,3.27
